SASJ/JUJ METAR and TAF weather

Enter ICAO airport designator
Station Type Date Time Source
SASJ METAR 2019/02/23 22:00 UTC NOAA

SASJ 232200Z 05010KT 350V090 CAVOK 32/18 Q1004


Station Type Date Time Source
SASJ Decoded METAR 2019/02/23 22:00 UTC NOAA

Jujuy Aerodrome, Argentina (SASJ) 24-23S 065-05W 905M
Feb 23, 2019 - 05:00 PM EST / 2019.02.23 2200 UTC
Wind: from the NE (050 degrees) at 12 MPH (10 KT) (direction variable):0
Visibility: greater than 7 mile(s):0
Temperature: 89 F (32 C)
Dew Point: 64 F (18 C)
Relative Humidity: 43%
Pressure (altimeter): 29.65 in. Hg (1004 hPa)
ob: SASJ 232200Z 05010KT 350V090 CAVOK 32/18 Q1004
cycle: 22

Station Type Date Time Source
SASJ TAF 2019/02/23 18:12 UTC NOAA

TAF SASJ 231700Z 2318/2418 05010KT CAVOK TX34/23419Z TN22/2410Z
BECMG 2400/2403 27005KT
BECMG 2416/2418 18015KT 9999 BKN020 FEW040CB


Example: see airport list